sensor_id;sensor_type;location;lat;lon;timestamp;pressure;altitude;pressure_sealevel;temperature;humidity
29045;BME280;16133;49.486;12.176;2023-07-13T00:01:29;97170.50;;;20.06;100.00
29045;BME280;16133;49.486;12.176;2023-07-13T00:03:56;97160.22;;;20.03;100.00
29045;BME280;16133;49.486;12.176;2023-07-13T00:06:21;97162.84;;;19.98;100.00
29045;BME280;16133;49.486;12.176;2023-07-13T00:08:47;97156.31;;;19.94;100.00
29045;BME280;16133;49.486;12.176;2023-07-13T00:11:14;97151.66;;;19.89;100.00
29045;BME280;16133;49.486;12.176;2023-07-13T00:13:40;97148.63;;;19.86;100.00
29045;BME280;16133;49.486;12.176;2023-07-13T00:16:06;97147.47;;;19.82;100.00
29045;BME280;16133;49.486;12.176;2023-07-13T00:18:31;97144.47;;;19.78;100.00
29045;BME280;16133;49.486;12.176;2023-07-13T00:20:57;97146.81;;;19.75;100.00
29045;BME280;16133;49.486;12.176;2023-07-13T00:23:31;97137.88;;;19.69;100.00
29045;BME280;16133;49.486;12.176;2023-07-13T00:25:56;97138.09;;;19.68;100.00
29045;BME280;16133;49.486;12.176;2023-07-13T00:28:22;97150.19;;;19.65;100.00
29045;BME280;16133;49.486;12.176;2023-07-13T00:30:48;97166.56;;;19.64;100.00
29045;BME280;16133;49.486;12.176;2023-07-13T00:33:13;97162.22;;;19.63;100.00
29045;BME280;16133;49.486;12.176;2023-07-13T00:35:38;97169.25;;;19.64;100.00
29045;BME280;16133;49.486;12.176;2023-07-13T00:38:05;97165.41;;;19.60;100.00
29045;BME280;16133;49.486;12.176;2023-07-13T00:40:30;97159.69;;;19.56;100.00
29045;BME280;16133;49.486;12.176;2023-07-13T00:42:58;97154.00;;;19.52;100.00
29045;BME280;16133;49.486;12.176;2023-07-13T00:47:49;97148.19;;;19.32;100.00
29045;BME280;16133;49.486;12.176;2023-07-13T00:50:16;97148.03;;;19.22;100.00
29045;BME280;16133;49.486;12.176;2023-07-13T00:52:45;97146.53;;;19.15;100.00
29045;BME280;16133;49.486;12.176;2023-07-13T00:55:12;97135.44;;;19.11;100.00
29045;BME280;16133;49.486;12.176;2023-07-13T00:57:40;97139.66;;;19.07;100.00
29045;BME280;16133;49.486;12.176;2023-07-13T01:00:07;97140.38;;;19.02;100.00
29045;BME280;16133;49.486;12.176;2023-07-13T01:02:35;97140.53;;;18.96;100.00
29045;BME280;16133;49.486;12.176;2023-07-13T01:05:19;97136.69;;;18.92;100.00
29045;BME280;16133;49.486;12.176;2023-07-13T01:07:48;97139.69;;;18.95;100.00
29045;BME280;16133;49.486;12.176;2023-07-13T01:10:15;97141.09;;;18.98;100.00
29045;BME280;16133;49.486;12.176;2023-07-13T01:12:41;97138.72;;;19.01;100.00
29045;BME280;16133;49.486;12.176;2023-07-13T01:17:57;97132.09;;;19.04;100.00
29045;BME280;16133;49.486;12.176;2023-07-13T01:20:24;97130.44;;;19.03;100.00
29045;BME280;16133;49.486;12.176;2023-07-13T01:22:50;97134.78;;;19.04;100.00
29045;BME280;16133;49.486;12.176;2023-07-13T01:25:16;97141.75;;;19.05;100.00
29045;BME280;16133;49.486;12.176;2023-07-13T01:27:41;97140.16;;;19.04;100.00
29045;BME280;16133;49.486;12.176;2023-07-13T01:30:07;97139.31;;;19.03;100.00
29045;BME280;16133;49.486;12.176;2023-07-13T01:32:32;97141.75;;;19.05;100.00
29045;BME280;16133;49.486;12.176;2023-07-13T01:34:59;97145.28;;;19.05;100.00
29045;BME280;16133;49.486;12.176;2023-07-13T01:37:26;97137.19;;;19.05;100.00
29045;BME280;16133;49.486;12.176;2023-07-13T01:39:52;97143.88;;;19.03;100.00
29045;BME280;16133;49.486;12.176;2023-07-13T01:42:18;97155.47;;;19.03;100.00
29045;BME280;16133;49.486;12.176;2023-07-13T01:44:43;97148.44;;;19.02;100.00
29045;BME280;16133;49.486;12.176;2023-07-13T01:47:09;97155.00;;;18.95;100.00
29045;BME280;16133;49.486;12.176;2023-07-13T01:49:35;97133.78;;;18.82;100.00
29045;BME280;16133;49.486;12.176;2023-07-13T01:52:00;97152.81;;;18.92;100.00
29045;BME280;16133;49.486;12.176;2023-07-13T01:54:26;97152.47;;;18.88;100.00
29045;BME280;16133;49.486;12.176;2023-07-13T01:56:51;97155.88;;;18.84;100.00
29045;BME280;16133;49.486;12.176;2023-07-13T01:59:16;97153.53;;;18.76;100.00
29045;BME280;16133;49.486;12.176;2023-07-13T02:01:42;97157.91;;;18.65;100.00
29045;BME280;16133;49.486;12.176;2023-07-13T02:04:07;97159.56;;;18.54;100.00
29045;BME280;16133;49.486;12.176;2023-07-13T02:06:32;97153.34;;;18.42;100.00
29045;BME280;16133;49.486;12.176;2023-07-13T02:08:58;97147.72;;;18.32;100.00
29045;BME280;16133;49.486;12.176;2023-07-13T02:11:24;97147.84;;;18.26;100.00
29045;BME280;16133;49.486;12.176;2023-07-13T02:13:50;97141.44;;;18.15;100.00
29045;BME280;16133;49.486;12.176;2023-07-13T02:16:16;97138.88;;;18.08;100.00
29045;BME280;16133;49.486;12.176;2023-07-13T02:18:41;97147.84;;;18.02;100.00
29045;BME280;16133;49.486;12.176;2023-07-13T02:21:07;97142.59;;;17.96;100.00
29045;BME280;16133;49.486;12.176;2023-07-13T02:23:32;97141.09;;;17.88;100.00
29045;BME280;16133;49.486;12.176;2023-07-13T02:25:59;97141.41;;;17.80;100.00
29045;BME280;16133;49.486;12.176;2023-07-13T02:28:25;97145.47;;;17.71;100.00
29045;BME280;16133;49.486;12.176;2023-07-13T02:30:51;97135.31;;;17.61;100.00
29045;BME280;16133;49.486;12.176;2023-07-13T02:33:16;97129.69;;;17.51;100.00
29045;BME280;16133;49.486;12.176;2023-07-13T02:35:42;97136.19;;;17.44;100.00
29045;BME280;16133;49.486;12.176;2023-07-13T02:38:07;97123.53;;;17.33;100.00
29045;BME280;16133;49.486;12.176;2023-07-13T02:40:33;97120.63;;;17.23;100.00
29045;BME280;16133;49.486;12.176;2023-07-13T02:43:00;97127.34;;;17.13;100.00
29045;BME280;16133;49.486;12.176;2023-07-13T02:45:26;97123.94;;;17.06;100.00
29045;BME280;16133;49.486;12.176;2023-07-13T02:47:51;97122.63;;;16.97;100.00
29045;BME280;16133;49.486;12.176;2023-07-13T02:50:17;97120.25;;;16.89;100.00
29045;BME280;16133;49.486;12.176;2023-07-13T02:52:42;97124.06;;;16.82;100.00
29045;BME280;16133;49.486;12.176;2023-07-13T02:55:08;97114.47;;;16.74;100.00
29045;BME280;16133;49.486;12.176;2023-07-13T02:57:33;97116.44;;;16.67;100.00
29045;BME280;16133;49.486;12.176;2023-07-13T02:59:59;97102.88;;;16.62;100.00
29045;BME280;16133;49.486;12.176;2023-07-13T03:02:25;97100.88;;;16.57;100.00
29045;BME280;16133;49.486;12.176;2023-07-13T03:04:53;97097.22;;;16.52;100.00
29045;BME280;16133;49.486;12.176;2023-07-13T03:07:18;97094.75;;;16.50;100.00
29045;BME280;16133;49.486;12.176;2023-07-13T03:09:44;97089.03;;;16.47;100.00
29045;BME280;16133;49.486;12.176;2023-07-13T03:12:09;97095.03;;;16.42;100.00
29045;BME280;16133;49.486;12.176;2023-07-13T03:14:34;97094.47;;;16.40;100.00
29045;BME280;16133;49.486;12.176;2023-07-13T03:17:00;97084.19;;;16.37;100.00
29045;BME280;16133;49.486;12.176;2023-07-13T03:19:25;97074.16;;;16.33;100.00
29045;BME280;16133;49.486;12.176;2023-07-13T03:21:51;97076.44;;;16.29;100.00
29045;BME280;16133;49.486;12.176;2023-07-13T03:24:16;97066.63;;;16.23;100.00
29045;BME280;16133;49.486;12.176;2023-07-13T03:26:41;97073.47;;;16.19;100.00
29045;BME280;16133;49.486;12.176;2023-07-13T03:29:07;97078.31;;;16.10;100.00
29045;BME280;16133;49.486;12.176;2023-07-13T03:31:34;97084.72;;;16.09;100.00
29045;BME280;16133;49.486;12.176;2023-07-13T03:34:00;97095.06;;;16.06;100.00
29045;BME280;16133;49.486;12.176;2023-07-13T03:36:29;97086.03;;;16.00;100.00
29045;BME280;16133;49.486;12.176;2023-07-13T03:38:57;97096.38;;;15.97;100.00
29045;BME280;16133;49.486;12.176;2023-07-13T03:41:24;97096.19;;;15.92;100.00
29045;BME280;16133;49.486;12.176;2023-07-13T03:43:50;97100.97;;;15.90;100.00
29045;BME280;16133;49.486;12.176;2023-07-13T03:46:16;97097.91;;;15.86;100.00
29045;BME280;16133;49.486;12.176;2023-07-13T03:48:43;97102.44;;;15.86;100.00
29045;BME280;16133;49.486;12.176;2023-07-13T03:51:10;97096.28;;;15.85;100.00
29045;BME280;16133;49.486;12.176;2023-07-13T03:53:40;97096.72;;;15.82;100.00
29045;BME280;16133;49.486;12.176;2023-07-13T03:56:07;97110.31;;;15.81;100.00
29045;BME280;16133;49.486;12.176;2023-07-13T03:58:35;97108.06;;;15.77;100.00
29045;BME280;16133;49.486;12.176;2023-07-13T04:01:02;97114.44;;;15.76;100.00
29045;BME280;16133;49.486;12.176;2023-07-13T04:03:29;97120.41;;;15.78;100.00
29045;BME280;16133;49.486;12.176;2023-07-13T04:05:55;97121.81;;;15.81;100.00
29045;BME280;16133;49.486;12.176;2023-07-13T04:08:25;97111.50;;;15.85;100.00
29045;BME280;16133;49.486;12.176;2023-07-13T04:10:51;97105.25;;;15.91;100.00
29045;BME280;16133;49.486;12.176;2023-07-13T04:13:16;97098.22;;;15.96;100.00
29045;BME280;16133;49.486;12.176;2023-07-13T04:15:41;97092.38;;;16.06;100.00
29045;BME280;16133;49.486;12.176;2023-07-13T04:18:07;97076.59;;;16.16;100.00
29045;BME280;16133;49.486;12.176;2023-07-13T04:20:32;97070.28;;;16.29;100.00
29045;BME280;16133;49.486;12.176;2023-07-13T04:22:58;97051.84;;;16.39;100.00
29045;BME280;16133;49.486;12.176;2023-07-13T04:25:23;97051.38;;;16.60;100.00
29045;BME280;16133;49.486;12.176;2023-07-13T04:27:49;97057.97;;;16.76;100.00
29045;BME280;16133;49.486;12.176;2023-07-13T04:30:15;97055.78;;;16.84;100.00
29045;BME280;16133;49.486;12.176;2023-07-13T04:32:40;97087.47;;;17.05;100.00
29045;BME280;16133;49.486;12.176;2023-07-13T04:35:06;97105.00;;;17.19;100.00
29045;BME280;16133;49.486;12.176;2023-07-13T04:37:31;97129.16;;;17.31;100.00
29045;BME280;16133;49.486;12.176;2023-07-13T04:39:57;97152.03;;;17.45;100.00
29045;BME280;16133;49.486;12.176;2023-07-13T04:42:22;97166.25;;;17.64;100.00
29045;BME280;16133;49.486;12.176;2023-07-13T04:44:49;97187.88;;;17.81;100.00
29045;BME280;16133;49.486;12.176;2023-07-13T04:47:14;97210.28;;;17.98;100.00
29045;BME280;16133;49.486;12.176;2023-07-13T04:49:40;97223.19;;;18.19;100.00
29045;BME280;16133;49.486;12.176;2023-07-13T04:52:06;97235.31;;;18.33;100.00
29045;BME280;16133;49.486;12.176;2023-07-13T04:54:33;97247.03;;;18.50;100.00
29045;BME280;16133;49.486;12.176;2023-07-13T04:56:58;97243.09;;;18.65;100.00
29045;BME280;16133;49.486;12.176;2023-07-13T04:59:23;97244.09;;;18.87;100.00
29045;BME280;16133;49.486;12.176;2023-07-13T05:01:49;97246.19;;;19.08;100.00
29045;BME280;16133;49.486;12.176;2023-07-13T05:04:14;97243.34;;;19.26;100.00
29045;BME280;16133;49.486;12.176;2023-07-13T05:06:39;97247.38;;;19.40;100.00
29045;BME280;16133;49.486;12.176;2023-07-13T05:09:05;97249.59;;;19.43;100.00
29045;BME280;16133;49.486;12.176;2023-07-13T05:11:31;97244.13;;;19.38;100.00
29045;BME280;16133;49.486;12.176;2023-07-13T05:13:56;97255.47;;;19.29;100.00
29045;BME280;16133;49.486;12.176;2023-07-13T05:16:22;97254.94;;;19.15;100.00
29045;BME280;16133;49.486;12.176;2023-07-13T05:18:47;97257.28;;;19.12;100.00
29045;BME280;16133;49.486;12.176;2023-07-13T05:21:12;97257.03;;;19.13;100.00
29045;BME280;16133;49.486;12.176;2023-07-13T05:23:39;97262.97;;;19.27;100.00
29045;BME280;16133;49.486;12.176;2023-07-13T05:26:07;97274.91;;;19.71;100.00
29045;BME280;16133;49.486;12.176;2023-07-13T05:28:32;97272.97;;;20.28;100.00
29045;BME280;16133;49.486;12.176;2023-07-13T05:30:58;97278.94;;;20.96;100.00
29045;BME280;16133;49.486;12.176;2023-07-13T05:33:24;97278.22;;;21.44;100.00
29045;BME280;16133;49.486;12.176;2023-07-13T05:35:50;97286.41;;;21.50;96.93
29045;BME280;16133;49.486;12.176;2023-07-13T05:38:15;97285.31;;;21.51;97.03
29045;BME280;16133;49.486;12.176;2023-07-13T05:40:45;97290.69;;;22.21;96.11
29045;BME280;16133;49.486;12.176;2023-07-13T05:43:11;97304.72;;;22.76;88.90
29045;BME280;16133;49.486;12.176;2023-07-13T05:45:36;97307.38;;;23.55;85.13
29045;BME280;16133;49.486;12.176;2023-07-13T05:48:01;97310.59;;;24.80;77.52
29045;BME280;16133;49.486;12.176;2023-07-13T05:50:27;97311.38;;;26.00;69.13
29045;BME280;16133;49.486;12.176;2023-07-13T05:52:52;97299.44;;;27.08;63.10
29045;BME280;16133;49.486;12.176;2023-07-13T05:55:19;97311.09;;;28.09;58.54
29045;BME280;16133;49.486;12.176;2023-07-13T05:57:44;97305.69;;;28.78;55.60
29045;BME280;16133;49.486;12.176;2023-07-13T06:00:10;97308.25;;;29.48;52.61
29045;BME280;16133;49.486;12.176;2023-07-13T06:02:36;97312.91;;;30.02;49.82
29045;BME280;16133;49.486;12.176;2023-07-13T06:05:01;97303.72;;;30.34;48.58
29045;BME280;16133;49.486;12.176;2023-07-13T06:07:26;97307.06;;;30.67;47.25
29045;BME280;16133;49.486;12.176;2023-07-13T06:09:52;97307.53;;;31.05;45.34
29045;BME280;16133;49.486;12.176;2023-07-13T06:12:17;97306.72;;;31.35;43.82
29045;BME280;16133;49.486;12.176;2023-07-13T06:14:43;97304.09;;;31.30;42.83
29045;BME280;16133;49.486;12.176;2023-07-13T06:17:08;97313.66;;;31.41;43.49
29045;BME280;16133;49.486;12.176;2023-07-13T06:19:34;97309.97;;;31.46;42.12
29045;BME280;16133;49.486;12.176;2023-07-13T06:21:59;97308.50;;;30.64;43.10
29045;BME280;16133;49.486;12.176;2023-07-13T06:24:25;97303.19;;;29.82;45.71
29045;BME280;16133;49.486;12.176;2023-07-13T06:26:51;97305.84;;;29.47;47.05
29045;BME280;16133;49.486;12.176;2023-07-13T06:29:16;97301.13;;;29.20;47.12
29045;BME280;16133;49.486;12.176;2023-07-13T06:31:47;97303.47;;;29.13;47.88
29045;BME280;16133;49.486;12.176;2023-07-13T06:34:12;97305.16;;;29.09;47.65
29045;BME280;16133;49.486;12.176;2023-07-13T06:36:41;97305.72;;;28.92;47.64
29045;BME280;16133;49.486;12.176;2023-07-13T06:39:07;97309.81;;;28.57;48.32
29045;BME280;16133;49.486;12.176;2023-07-13T06:41:32;97295.25;;;28.29;49.74
29045;BME280;16133;49.486;12.176;2023-07-13T06:43:58;97303.16;;;27.88;48.97
29045;BME280;16133;49.486;12.176;2023-07-13T06:46:24;97300.28;;;27.56;48.95
29045;BME280;16133;49.486;12.176;2023-07-13T06:48:49;97304.38;;;27.30;49.16
29045;BME280;16133;49.486;12.176;2023-07-13T06:51:15;97294.19;;;27.17;50.04
29045;BME280;16133;49.486;12.176;2023-07-13T06:53:44;97305.81;;;27.22;51.76
29045;BME280;16133;49.486;12.176;2023-07-13T06:56:10;97309.63;;;26.97;50.89
29045;BME280;16133;49.486;12.176;2023-07-13T06:58:36;97302.94;;;26.80;50.55
29045;BME280;16133;49.486;12.176;2023-07-13T07:01:02;97307.91;;;26.39;49.74
29045;BME280;16133;49.486;12.176;2023-07-13T07:03:28;97315.84;;;26.30;51.32
29045;BME280;16133;49.486;12.176;2023-07-13T07:05:54;97319.91;;;26.33;52.49
29045;BME280;16133;49.486;12.176;2023-07-13T07:08:19;97316.16;;;26.24;51.88
29045;BME280;16133;49.486;12.176;2023-07-13T07:10:44;97315.25;;;25.84;51.12
29045;BME280;16133;49.486;12.176;2023-07-13T07:13:10;97326.00;;;25.40;51.79
29045;BME280;16133;49.486;12.176;2023-07-13T07:15:36;97312.22;;;25.16;53.06
29045;BME280;16133;49.486;12.176;2023-07-13T07:18:01;97320.34;;;25.11;54.81
29045;BME280;16133;49.486;12.176;2023-07-13T07:20:26;97321.47;;;25.05;50.68
29045;BME280;16133;49.486;12.176;2023-07-13T07:22:52;97313.31;;;25.05;49.09
29045;BME280;16133;49.486;12.176;2023-07-13T07:25:18;97322.84;;;25.03;47.18
29045;BME280;16133;49.486;12.176;2023-07-13T07:27:45;97318.22;;;24.83;47.32
29045;BME280;16133;49.486;12.176;2023-07-13T07:30:11;97325.25;;;24.74;48.75
29045;BME280;16133;49.486;12.176;2023-07-13T07:32:36;97313.84;;;24.77;46.92
29045;BME280;16133;49.486;12.176;2023-07-13T07:35:02;97321.75;;;24.84;47.28
29045;BME280;16133;49.486;12.176;2023-07-13T07:37:27;97319.28;;;24.72;46.53
29045;BME280;16133;49.486;12.176;2023-07-13T07:39:53;97313.31;;;24.65;44.69
29045;BME280;16133;49.486;12.176;2023-07-13T07:42:18;97323.63;;;24.63;44.34
29045;BME280;16133;49.486;12.176;2023-07-13T07:44:43;97328.78;;;24.69;44.36
29045;BME280;16133;49.486;12.176;2023-07-13T07:47:09;97329.06;;;24.83;42.38
29045;BME280;16133;49.486;12.176;2023-07-13T07:49:35;97328.81;;;24.95;43.68
29045;BME280;16133;49.486;12.176;2023-07-13T07:52:01;97333.38;;;25.30;43.14
29045;BME280;16133;49.486;12.176;2023-07-13T07:54:27;97337.88;;;25.69;43.00
29045;BME280;16133;49.486;12.176;2023-07-13T07:56:52;97339.56;;;26.20;41.45
29045;BME280;16133;49.486;12.176;2023-07-13T07:59:21;97337.31;;;26.37;39.13
29045;BME280;16133;49.486;12.176;2023-07-13T08:01:46;97343.47;;;26.47;39.94
29045;BME280;16133;49.486;12.176;2023-07-13T08:04:13;97339.22;;;26.31;40.24
29045;BME280;16133;49.486;12.176;2023-07-13T08:06:38;97349.88;;;26.28;41.56
29045;BME280;16133;49.486;12.176;2023-07-13T08:09:04;97343.59;;;26.27;41.12
29045;BME280;16133;49.486;12.176;2023-07-13T08:11:30;97356.63;;;26.35;42.13
29045;BME280;16133;49.486;12.176;2023-07-13T08:13:55;97346.06;;;26.29;41.73
29045;BME280;16133;49.486;12.176;2023-07-13T08:16:21;97361.78;;;26.37;42.44
29045;BME280;16133;49.486;12.176;2023-07-13T08:18:47;97357.84;;;26.53;43.75
29045;BME280;16133;49.486;12.176;2023-07-13T08:21:12;97374.03;;;26.73;42.94
29045;BME280;16133;49.486;12.176;2023-07-13T08:23:37;97368.50;;;26.88;43.84
29045;BME280;16133;49.486;12.176;2023-07-13T08:26:03;97365.16;;;27.01;42.62
29045;BME280;16133;49.486;12.176;2023-07-13T08:28:29;97361.94;;;27.23;41.45
29045;BME280;16133;49.486;12.176;2023-07-13T08:31:00;97364.69;;;27.18;42.94
29045;BME280;16133;49.486;12.176;2023-07-13T08:33:26;97369.44;;;27.07;40.74
29045;BME280;16133;49.486;12.176;2023-07-13T08:35:51;97367.44;;;26.89;42.57
29045;BME280;16133;49.486;12.176;2023-07-13T08:38:18;97362.88;;;26.75;42.77
29045;BME280;16133;49.486;12.176;2023-07-13T08:40:53;97368.72;;;26.58;42.30
29045;BME280;16133;49.486;12.176;2023-07-13T08:43:25;97384.19;;;26.62;40.56
29045;BME280;16133;49.486;12.176;2023-07-13T08:46:03;97387.59;;;26.44;39.34
29045;BME280;16133;49.486;12.176;2023-07-13T08:48:52;97393.13;;;26.24;42.01
29045;BME280;16133;49.486;12.176;2023-07-13T08:56:40;97400.69;;;25.63;42.62
29045;BME280;16133;49.486;12.176;2023-07-13T08:59:14;97390.41;;;25.14;42.08
29045;BME280;16133;49.486;12.176;2023-07-13T09:04:42;97396.34;;;24.56;43.98
29045;BME280;16133;49.486;12.176;2023-07-13T09:15:50;97408.78;;;23.32;46.21
29045;BME280;16133;49.486;12.176;2023-07-13T09:18:23;97414.66;;;23.24;47.90
29045;BME280;16133;49.486;12.176;2023-07-13T09:20:56;97406.06;;;23.32;45.84
29045;BME280;16133;49.486;12.176;2023-07-13T09:23:24;97419.78;;;23.21;46.22
29045;BME280;16133;49.486;12.176;2023-07-13T09:25:55;97416.78;;;23.17;46.81
29045;BME280;16133;49.486;12.176;2023-07-13T09:28:29;97414.44;;;23.31;49.18
29045;BME280;16133;49.486;12.176;2023-07-13T09:31:09;97413.50;;;23.47;48.66
29045;BME280;16133;49.486;12.176;2023-07-13T09:33:37;97429.38;;;23.75;45.89
29045;BME280;16133;49.486;12.176;2023-07-13T09:36:17;97417.44;;;23.71;45.05
29045;BME280;16133;49.486;12.176;2023-07-13T09:38:44;97423.50;;;23.94;44.72
29045;BME280;16133;49.486;12.176;2023-07-13T09:47:39;97423.94;;;24.27;44.17
29045;BME280;16133;49.486;12.176;2023-07-13T09:50:10;97427.38;;;24.13;40.75
29045;BME280;16133;49.486;12.176;2023-07-13T09:52:48;97422.72;;;23.98;41.36
29045;BME280;16133;49.486;12.176;2023-07-13T09:55:34;97434.47;;;24.14;42.18
29045;BME280;16133;49.486;12.176;2023-07-13T09:58:21;97429.03;;;24.19;42.43
29045;BME280;16133;49.486;12.176;2023-07-13T10:01:02;97431.03;;;24.34;43.69
29045;BME280;16133;49.486;12.176;2023-07-13T10:03:35;97428.59;;;24.47;40.83
29045;BME280;16133;49.486;12.176;2023-07-13T10:06:14;97418.03;;;24.61;40.19
29045;BME280;16133;49.486;12.176;2023-07-13T10:08:40;97427.31;;;24.75;40.93
29045;BME280;16133;49.486;12.176;2023-07-13T10:11:17;97432.22;;;25.03;37.54
29045;BME280;16133;49.486;12.176;2023-07-13T10:13:58;97432.50;;;25.32;38.34
29045;BME280;16133;49.486;12.176;2023-07-13T10:16:28;97431.66;;;25.62;38.20
29045;BME280;16133;49.486;12.176;2023-07-13T10:19:21;97431.56;;;25.97;38.31
29045;BME280;16133;49.486;12.176;2023-07-13T10:21:53;97441.28;;;26.24;37.42
29045;BME280;16133;49.486;12.176;2023-07-13T10:24:25;97437.00;;;26.61;37.38
29045;BME280;16133;49.486;12.176;2023-07-13T10:29:27;97445.44;;;27.38;36.02
29045;BME280;16133;49.486;12.176;2023-07-13T10:31:54;97436.09;;;27.49;34.30
29045;BME280;16133;49.486;12.176;2023-07-13T10:34:22;97433.63;;;27.52;35.32
29045;BME280;16133;49.486;12.176;2023-07-13T10:36:48;97436.34;;;27.52;34.33
29045;BME280;16133;49.486;12.176;2023-07-13T10:39:24;97446.13;;;27.25;34.72
29045;BME280;16133;49.486;12.176;2023-07-13T10:41:59;97438.28;;;26.79;35.46
29045;BME280;16133;49.486;12.176;2023-07-13T10:44:28;97434.88;;;26.53;36.63
29045;BME280;16133;49.486;12.176;2023-07-13T10:47:15;97434.06;;;26.53;35.76
29045;BME280;16133;49.486;12.176;2023-07-13T10:49:41;97448.31;;;26.30;36.36
29045;BME280;16133;49.486;12.176;2023-07-13T10:52:50;97448.66;;;26.13;37.36
29045;BME280;16133;49.486;12.176;2023-07-13T10:58:32;97441.97;;;25.65;38.46
29045;BME280;16133;49.486;12.176;2023-07-13T11:03:35;97436.00;;;24.82;42.12
29045;BME280;16133;49.486;12.176;2023-07-13T11:08:52;97460.88;;;24.54;40.34
29045;BME280;16133;49.486;12.176;2023-07-13T11:18:50;97461.66;;;23.82;38.46
29045;BME280;16133;49.486;12.176;2023-07-13T11:21:21;97450.25;;;23.75;39.19
29045;BME280;16133;49.486;12.176;2023-07-13T11:24:14;97421.66;;;23.57;38.51
29045;BME280;16133;49.486;12.176;2023-07-13T11:29:32;97435.09;;;23.84;38.28
29045;BME280;16133;49.486;12.176;2023-07-13T11:32:01;97434.03;;;23.80;38.15
29045;BME280;16133;49.486;12.176;2023-07-13T11:34:46;97441.81;;;23.71;38.58
29045;BME280;16133;49.486;12.176;2023-07-13T11:37:15;97436.03;;;23.58;39.71
29045;BME280;16133;49.486;12.176;2023-07-13T11:39:44;97430.91;;;23.61;40.10
29045;BME280;16133;49.486;12.176;2023-07-13T11:42:13;97428.19;;;23.61;40.76
29045;BME280;16133;49.486;12.176;2023-07-13T11:44:48;97431.50;;;23.68;40.54
29045;BME280;16133;49.486;12.176;2023-07-13T11:47:18;97433.00;;;23.96;38.30
29045;BME280;16133;49.486;12.176;2023-07-13T11:49:49;97432.91;;;23.76;40.40
29045;BME280;16133;49.486;12.176;2023-07-13T11:52:24;97428.28;;;23.76;38.32
29045;BME280;16133;49.486;12.176;2023-07-13T11:54:54;97420.44;;;23.75;41.68
29045;BME280;16133;49.486;12.176;2023-07-13T11:57:28;97418.78;;;23.74;40.83
29045;BME280;16133;49.486;12.176;2023-07-13T11:59:58;97425.41;;;24.03;36.87
29045;BME280;16133;49.486;12.176;2023-07-13T12:02:36;97413.44;;;23.89;37.92
29045;BME280;16133;49.486;12.176;2023-07-13T12:05:04;97422.09;;;23.86;37.77
29045;BME280;16133;49.486;12.176;2023-07-13T12:07:33;97409.09;;;23.83;37.41
29045;BME280;16133;49.486;12.176;2023-07-13T12:10:13;97419.44;;;23.91;37.87
29045;BME280;16133;49.486;12.176;2023-07-13T12:12:52;97416.78;;;24.06;38.42
29045;BME280;16133;49.486;12.176;2023-07-13T12:15:18;97414.97;;;24.22;38.44
29045;BME280;16133;49.486;12.176;2023-07-13T12:17:45;97416.09;;;24.46;38.02
29045;BME280;16133;49.486;12.176;2023-07-13T12:20:23;97410.47;;;24.73;37.17
29045;BME280;16133;49.486;12.176;2023-07-13T12:22:50;97414.03;;;24.89;37.87
29045;BME280;16133;49.486;12.176;2023-07-13T12:25:16;97417.56;;;25.14;35.91
29045;BME280;16133;49.486;12.176;2023-07-13T12:27:46;97414.88;;;25.09;34.91
29045;BME280;16133;49.486;12.176;2023-07-13T12:30:30;97409.97;;;24.96;36.06
29045;BME280;16133;49.486;12.176;2023-07-13T12:33:01;97414.31;;;25.02;35.27
29045;BME280;16133;49.486;12.176;2023-07-13T12:35:29;97413.78;;;25.05;36.17
29045;BME280;16133;49.486;12.176;2023-07-13T12:37:57;97412.69;;;25.21;35.16
29045;BME280;16133;49.486;12.176;2023-07-13T12:40:31;97412.94;;;25.30;34.87
29045;BME280;16133;49.486;12.176;2023-07-13T12:42:57;97411.81;;;25.46;34.37
29045;BME280;16133;49.486;12.176;2023-07-13T12:45:26;97422.69;;;25.51;35.48
29045;BME280;16133;49.486;12.176;2023-07-13T12:47:58;97416.44;;;25.61;34.87
29045;BME280;16133;49.486;12.176;2023-07-13T12:50:30;97414.53;;;25.46;35.38
29045;BME280;16133;49.486;12.176;2023-07-13T12:53:01;97413.19;;;25.59;34.89
29045;BME280;16133;49.486;12.176;2023-07-13T12:55:29;97414.81;;;25.70;32.51
29045;BME280;16133;49.486;12.176;2023-07-13T12:57:59;97422.69;;;25.46;33.58
29045;BME280;16133;49.486;12.176;2023-07-13T13:00:33;97419.72;;;25.43;34.24
29045;BME280;16133;49.486;12.176;2023-07-13T13:05:44;97409.13;;;25.46;34.64
29045;BME280;16133;49.486;12.176;2023-07-13T13:08:11;97403.97;;;25.40;33.07
29045;BME280;16133;49.486;12.176;2023-07-13T13:10:37;97415.13;;;25.28;34.89
29045;BME280;16133;49.486;12.176;2023-07-13T13:13:03;97396.38;;;25.27;35.96
29045;BME280;16133;49.486;12.176;2023-07-13T13:15:28;97405.59;;;25.56;33.71
29045;BME280;16133;49.486;12.176;2023-07-13T13:17:55;97396.09;;;25.48;32.39
29045;BME280;16133;49.486;12.176;2023-07-13T13:20:21;97396.94;;;25.23;33.40
29045;BME280;16133;49.486;12.176;2023-07-13T13:22:47;97397.75;;;25.29;34.03
29045;BME280;16133;49.486;12.176;2023-07-13T13:25:14;97395.00;;;25.34;35.82
29045;BME280;16133;49.486;12.176;2023-07-13T13:27:44;97404.53;;;25.52;34.60
29045;BME280;16133;49.486;12.176;2023-07-13T13:30:15;97400.13;;;25.61;33.22
29045;BME280;16133;49.486;12.176;2023-07-13T13:32:44;97403.94;;;25.70;32.19
29045;BME280;16133;49.486;12.176;2023-07-13T13:35:15;97408.53;;;25.75;32.61
29045;BME280;16133;49.486;12.176;2023-07-13T13:37:41;97399.56;;;25.69;33.71
29045;BME280;16133;49.486;12.176;2023-07-13T13:40:19;97401.72;;;25.82;32.37
29045;BME280;16133;49.486;12.176;2023-07-13T13:42:45;97405.53;;;25.86;33.63